Time;durP1;ratioP1;P1;durP2;ratioP2;P2;SDS_P1;SDS_P2;PMS_P1;PMS_P2;Temp;Humidity;BMP_temperature;BMP_pressure;BME280_temperature;BME280_humidity;BME280_pressure;Samples;Min_cycle;Max_cycle;Signal;HPM_P1;HPM_P2
2021/08/30 00:00:22;;;;;;;;;;;;;;;;;;5036772;28;20412;-81
2021/08/30 00:03:06;;;;;;;;;;;;;;;;;;5035674;28;20281;-80
2021/08/30 00:05:50;;;;;;;;;;;;;;;;;;5039790;28;19924;-81
2021/08/30 00:08:35;;;;;;;;;;;;;;;;;;5035344;28;20044;-80
2021/08/30 00:11:19;;;;;;;;;;;;;;;;;;5036798;28;20408;-82
2021/08/30 00:14:23;;;;;;;;;;;;;;;;;;5033048;28;20293;-81
2021/08/30 00:17:07;;;;;;;;;;;;;;;;;;5036320;28;19920;-82
2021/08/30 00:20:10;;;;;;;;;;;;;;;;;;5033565;28;19921;-81
2021/08/30 00:22:54;;;;;;;;;;;;;;;;;;5038273;28;19924;-80
2021/08/30 00:25:39;;;;;;;;;;;;;;;;;;5037080;28;20297;-81
2021/08/30 00:28:24;;;;;;;;;;;;;;;;;;5032874;28;19984;-81
2021/08/30 00:31:27;;;;;;;;;;;;;;;;;;5032668;28;19920;-80
2021/08/30 00:37:14;;;;;;;;;;;;;;;;;;5037496;28;19920;-81
2021/08/30 00:39:59;;;;;;;;;;;;;;;;;;5037620;28;19936;-80
2021/08/30 00:42:44;;;;;;;;;;;;;;;;;;5033253;28;19935;-82
2021/08/30 00:45:28;;;;;;;;;;;;;;;;;;5039500;28;20281;-82
2021/08/30 00:48:12;;;;;;;;;;;;;;;;;;5034159;28;19924;-81
2021/08/30 00:50:56;;;;;;;;;;;;;;;;;;5034994;28;19920;-81
2021/08/30 00:53:40;;;;;;;;;;;;;;;;;;5033674;28;20365;-80
2021/08/30 00:56:25;;;;;;;;;;;;;;;;;;5035379;28;19920;-80
2021/08/30 00:59:09;;;;;;;;;;;;;;;;;;5035779;28;20325;-81
2021/08/30 01:01:53;;;;;;;;;;;;;;;;;;5033511;28;19924;-80
2021/08/30 01:04:37;;;;;;;;;;;;;;;;;;5037097;28;19920;-81
2021/08/30 01:07:40;;;;;;;;;;;;;;;;;;5033497;28;19920;-81
2021/08/30 01:10:25;;;;;;;;;;;;;;;;;;5039309;28;19945;-81
2021/08/30 01:13:09;;;;;;;;;;;;;;;;;;5035528;28;19920;-81
2021/08/30 01:15:53;;;;;;;;;;;;;;;;;;5035087;28;19924;-81
2021/08/30 01:21:41;;;;;;;;;;;;;;;;;;5035902;28;19988;-82
2021/08/30 01:27:28;;;;;;;;;;;;;;;;;;5034277;28;20408;-82
2021/08/30 01:30:12;;;;;;;;;;;;;;;;;;5035570;28;19924;-82
2021/08/30 01:32:57;;;;;;;;;;;;;;;;;;5033999;28;19980;-82
2021/08/30 01:38:45;;;;;;;;;;;;;;;;;;5035183;28;19952;-82
2021/08/30 01:41:30;;;;;;;;;;;;;;;;;;5032767;28;19921;-82
2021/08/30 01:44:16;;;;;;;;;;;;;;;;;;5036003;28;20392;-82
2021/08/30 01:47:00;;;;;;;;;;;;;;;;;;5032036;28;19920;-81
2021/08/30 01:49:44;;;;;;;;;;;;;;;;;;5033104;28;20400;-82
2021/08/30 02:01:06;;;;;;;;;;;;;;;;;;5037455;28;19921;-83
2021/08/30 02:03:50;;;;;;;;;;;;;;;;;;5038115;28;19920;-85
2021/08/30 02:06:35;;;;;;;;;;;;;;;;;;5040925;28;20423;-85
2021/08/30 02:09:19;;;;;;;;;;;;;;;;;;5037979;28;19924;-85
2021/08/30 02:12:03;;;;;;;;;;;;;;;;;;5036487;28;19943;-83
2021/08/30 02:14:47;;;;;;;;;;;;;;;;;;5034638;28;19920;-82
2021/08/30 02:17:32;;;;;;;;;;;;;;;;;;5035503;28;19920;-83
2021/08/30 02:20:17;;;;;;;;;;;;;;;;;;5035016;28;19920;-83
2021/08/30 02:23:01;;;;;;;;;;;;;;;;;;5034396;28;19920;-82
2021/08/30 02:25:45;;;;;;;;;;;;;;;;;;5038067;28;19920;-80
2021/08/30 02:28:29;;;;;;;;;;;;;;;;;;5031057;28;19940;-81
2021/08/30 02:31:13;;;;;;;;;;;;;;;;;;5034312;28;19924;-83
2021/08/30 02:33:57;;;;;;;;;;;;;;;;;;5037470;28;19920;-85
2021/08/30 02:37:00;;;;;;;;;;;;;;;;;;5032179;28;19920;-82
2021/08/30 02:42:48;;;;;;;;;;;;;;;;;;5036351;28;19933;-83
2021/08/30 02:45:32;;;;;;;;;;;;;;;;;;5034503;28;19935;-84
2021/08/30 02:48:16;;;;;;;;;;;;;;;;;;5031779;28;19920;-82
2021/08/30 02:51:00;;;;;;;;;;;;;;;;;;5039796;28;19937;-84
2021/08/30 02:53:44;;;;;;;;;;;;;;;;;;5034964;28;19924;-84
2021/08/30 02:56:29;;;;;;;;;;;;;;;;;;5033817;28;19935;-83
2021/08/30 02:59:13;;;;;;;;;;;;;;;;;;5037927;28;19923;-84
2021/08/30 03:01:57;;;;;;;;;;;;;;;;;;5028556;28;19928;-84
2021/08/30 03:04:41;;;;;;;;;;;;;;;;;;5034013;28;19920;-83
2021/08/30 03:07:25;;;;;;;;;;;;;;;;;;5037150;28;19920;-83
2021/08/30 03:10:09;;;;;;;;;;;;;;;;;;5036483;28;19925;-84
2021/08/30 03:12:53;;;;;;;;;;;;;;;;;;5029251;28;19923;-85
2021/08/30 03:15:37;;;;;;;;;;;;;;;;;;5031964;28;19920;-85
2021/08/30 03:18:22;;;;;;;;;;;;;;;;;;5014334;28;19920;-85
2021/08/30 03:21:06;;;;;;;;;;;;;;;;;;5035791;28;19920;-84
2021/08/30 03:23:50;;;;;;;;;;;;;;;;;;5032297;28;19920;-84
2021/08/30 03:26:34;;;;;;;;;;;;;;;;;;5018754;28;19921;-83
2021/08/30 03:29:19;;;;;;;;;;;;;;;;;;5027571;28;19924;-85
2021/08/30 03:32:03;;;;;;;;;;;;;;;;;;5037094;28;19924;-83
2021/08/30 03:34:47;;;;;;;;;;;;;;;;;;5042847;28;19936;-84
2021/08/30 03:37:31;;;;;;;;;;;;;;;;;;5039471;28;19920;-83
2021/08/30 03:40:15;;;;;;;;;;;;;;;;;;5042765;28;19928;-84
2021/08/30 03:42:59;;;;;;;;;;;;;;;;;;5042759;28;19920;-84
2021/08/30 03:45:44;;;;;;;;;;;;;;;;;;5039976;28;19920;-84
2021/08/30 03:48:28;;;;;;;;;;;;;;;;;;5030065;28;19924;-84
2021/08/30 03:51:12;;;;;;;;;;;;;;;;;;5041393;28;19928;-82
2021/08/30 03:53:56;;;;;;;;;;;;;;;;;;5037427;28;19924;-82
2021/08/30 03:56:41;;;;;;;;;;;;;;;;;;5037205;28;19920;-81
2021/08/30 03:59:27;;;;;;;;;;;;;;;;;;5037771;28;19936;-83
2021/08/30 04:02:12;;;;;;;;;;;;;;;;;;5038291;28;19920;-82
2021/08/30 04:04:56;;;;;;;;;;;;;;;;;;5037330;28;19920;-83
2021/08/30 04:07:40;;;;;;;;;;;;;;;;;;5035344;28;19921;-82
2021/08/30 04:10:43;;;;;;;;;;;;;;;;;;5034286;28;19944;-82
2021/08/30 04:16:30;;;;;;;;;;;;;;;;;;5038539;28;19936;-82
2021/08/30 04:19:16;;;;;;;;;;;;;;;;;;5038413;28;19920;-81
2021/08/30 04:22:00;;;;;;;;;;;;;;;;;;5039826;28;19920;-82
2021/08/30 04:24:44;;;;;;;;;;;;;;;;;;5038843;28;19920;-82
2021/08/30 04:27:29;;;;;;;;;;;;;;;;;;5038365;28;19947;-81
2021/08/30 04:30:13;;;;;;;;;;;;;;;;;;5035601;28;19928;-82
2021/08/30 04:32:58;;;;;;;;;;;;;;;;;;5041390;28;19969;-81
2021/08/30 04:35:42;;;;;;;;;;;;;;;;;;5037216;28;19940;-80
2021/08/30 04:38:26;;;;;;;;;;;;;;;;;;5026560;28;19920;-80
2021/08/30 04:41:10;;;;;;;;;;;;;;;;;;5028028;28;19924;-79
2021/08/30 04:43:54;;;;;;;;;;;;;;;;;;5031162;28;20305;-81
2021/08/30 04:46:39;;;;;;;;;;;;;;;;;;5028185;28;20513;-81
2021/08/30 04:49:23;;;;;;;;;;;;;;;;;;5030915;28;19928;-79
2021/08/30 04:52:07;;;;;;;;;;;;;;;;;;5037489;28;19936;-79
2021/08/30 04:55:11;;;;;;;;;;;;;;;;;;5018752;28;19924;-81
2021/08/30 04:57:55;;;;;;;;;;;;;;;;;;5018876;28;19924;-80
2021/08/30 05:00:39;;;;;;;;;;;;;;;;;;5019929;28;19920;-80
2021/08/30 05:03:32;;;;;;;;;;;;;;;;;;5036391;28;19924;-82
2021/08/30 05:06:17;;;;;;;;;;;;;;;;;;5040028;28;19924;-80
2021/08/30 05:12:04;;;;;;;;;;;;;;;;;;5035915;28;19936;-80
2021/08/30 05:14:48;;;;;;;;;;;;;;;;;;5038964;28;19920;-80
2021/08/30 05:17:33;;;;;;;;;;;;;;;;;;5036192;28;19936;-80
2021/08/30 05:20:17;;;;;;;;;;;;;;;;;;5034714;28;19920;-81
2021/08/30 05:23:01;;;;;;;;;;;;;;;;;;5039386;28;19920;-80
2021/08/30 05:25:45;;;;;;;;;;;;;;;;;;5037640;28;20296;-80
2021/08/30 05:28:29;;;;;;;;;;;;;;;;;;5034514;28;19920;-80
2021/08/30 05:31:14;;;;;;;;;;;;;;;;;;5037309;28;19928;-80
2021/08/30 05:33:58;;;;;;;;;;;;;;;;;;5037444;28;20305;-80
2021/08/30 05:36:43;;;;;;;;;;;;;;;;;;5034977;28;20428;-81
2021/08/30 05:42:49;;;;;;;;;;;;;;;;;;5035406;28;20309;-80
2021/08/30 05:45:33;;;;;;;;;;;;;;;;;;5031604;28;19940;-80
2021/08/30 05:48:18;;;;;;;;;;;;;;;;;;5034604;28;20289;-80
2021/08/30 05:51:02;;;;;;;;;;;;;;;;;;5035120;28;20397;-81
2021/08/30 05:53:46;;;;;;;;;;;;;;;;;;5033776;28;19932;-80
2021/08/30 05:56:30;;;;;;;;;;;;;;;;;;5038152;28;19920;-82
2021/08/30 05:59:14;;;;;;;;;;;;;;;;;;5034497;28;19920;-82
2021/08/30 06:01:58;;;;;;;;;;;;;;;;;;5032246;28;20392;-79
2021/08/30 06:04:43;;;;;;;;;;;;;;;;;;5037807;28;19928;-78
2021/08/30 06:07:27;;;;;;;;;;;;;;;;;;5035638;28;19920;-80
2021/08/30 06:10:11;;;;;;;;;;;;;;;;;;5031450;28;19924;-80
2021/08/30 06:12:56;;;;;;;;;;;;;;;;;;5037910;28;19920;-81
2021/08/30 06:15:59;;;;;;;;;;;;;;;;;;5031098;28;19920;-80
2021/08/30 06:18:43;;;;;;;;;;;;;;;;;;5027597;28;20395;-79
2021/08/30 06:21:27;;;;;;;;;;;;;;;;;;5037207;28;19920;-79
2021/08/30 06:24:11;;;;;;;;;;;;;;;;;;5033852;28;20301;-79
2021/08/30 06:26:55;;;;;;;;;;;;;;;;;;5033612;28;19936;-80
2021/08/30 06:29:40;;;;;;;;;;;;;;;;;;5034933;28;19980;-81
2021/08/30 06:32:24;;;;;;;;;;;;;;;;;;5032396;28;19924;-81
2021/08/30 06:35:08;;;;;;;;;;;;;;;;;;5033487;28;19920;-79
2021/08/30 06:37:52;;;;;;;;;;;;;;;;;;5026252;28;20397;-80
2021/08/30 06:40:55;;;;;;;;;;;;;;;;;;5029706;28;19936;-80
2021/08/30 06:43:40;;;;;;;;;;;;;;;;;;5028409;28;19920;-79
2021/08/30 06:46:24;;;;;;;;;;;;;;;;;;5033269;28;19921;-79
2021/08/30 06:49:08;;;;;;;;;;;;;;;;;;5032880;28;20400;-80
2021/08/30 06:51:52;;;;;;;;;;;;;;;;;;5030898;28;19927;-79
2021/08/30 06:57:40;;;;;;;;;;;;;;;;;;5034621;28;20405;-81
2021/08/30 07:00:25;;;;;;;;;;;;;;;;;;5032215;28;19920;-81
2021/08/30 07:03:11;;;;;;;;;;;;;;;;;;5036620;28;19921;-81
2021/08/30 07:05:55;;;;;;;;;;;;;;;;;;5037911;28;19928;-81
2021/08/30 07:09:02;;;;;;;;;;;;;;;;;;5033838;28;19924;-81
2021/08/30 07:11:46;;;;;;;;;;;;;;;;;;5039032;28;19928;-79
2021/08/30 07:14:30;;;;;;;;;;;;;;;;;;5037928;28;19920;-79
2021/08/30 07:17:14;;;;;;;;;;;;;;;;;;5034559;28;20388;-79
2021/08/30 07:19:59;;;;;;;;;;;;;;;;;;5039916;28;20316;-79
2021/08/30 07:22:43;;;;;;;;;;;;;;;;;;5037430;28;19963;-79
2021/08/30 07:25:46;;;;;;;;;;;;;;;;;;5034702;28;19932;-79
2021/08/30 07:28:30;;;;;;;;;;;;;;;;;;5034630;28;19921;-79
2021/08/30 07:31:15;;;;;;;;;;;;;;;;;;5037372;28;19921;-81
2021/08/30 07:33:59;;;;;;;;;;;;;;;;;;5032500;28;20408;-81
2021/08/30 07:36:43;;;;;;;;;;;;;;;;;;5034134;28;19920;-79
2021/08/30 07:39:28;;;;;;;;;;;;;;;;;;5028840;28;19925;-79
2021/08/30 07:42:12;;;;;;;;;;;;;;;;;;5032974;28;19928;-79
2021/08/30 07:44:56;;;;;;;;;;;;;;;;;;5037906;28;19936;-80
2021/08/30 07:47:41;;;;;;;;;;;;;;;;;;5035281;28;20297;-79
2021/08/30 07:50:26;;;;;;;;;;;;;;;;;;5035904;28;19924;-80
2021/08/30 07:53:11;;;;;;;;;;;;;;;;;;5041416;28;19924;-80
2021/08/30 07:55:55;;;;;;;;;;;;;;;;;;5040326;28;19924;-80
2021/08/30 07:58:39;;;;;;;;;;;;;;;;;;5037261;28;19920;-80
2021/08/30 08:01:24;;;;;;;;;;;;;;;;;;5040525;28;19940;-80
2021/08/30 08:04:08;;;;;;;;;;;;;;;;;;5038932;28;19920;-80
2021/08/30 08:06:52;;;;;;;;;;;;;;;;;;5030801;28;19924;-79
2021/08/30 08:09:36;;;;;;;;;;;;;;;;;;5037873;28;19928;-79
2021/08/30 08:12:20;;;;;;;;;;;;;;;;;;5038328;28;20400;-79
2021/08/30 08:18:09;;;;;;;;;;;;;;;;;;5036586;28;20193;-84
2021/08/30 08:20:54;;;;;;;;;;;;;;;;;;5037822;28;19924;-78
2021/08/30 08:23:38;;;;;;;;;;;;;;;;;;5037378;28;20388;-79
2021/08/30 08:26:23;;;;;;;;;;;;;;;;;;5039970;28;19936;-81
2021/08/30 08:29:07;;;;;;;;;;;;;;;;;;5038808;28;19932;-81
2021/08/30 08:31:51;;;;;;;;;;;;;;;;;;5037069;28;19921;-80
2021/08/30 08:34:35;;;;;;;;;;;;;;;;;;5039113;28;19924;-79
2021/08/30 08:37:20;;;;;;;;;;;;;;;;;;5034468;28;20502;-79
2021/08/30 08:40:04;;;;;;;;;;;;;;;;;;5031786;28;19940;-79
2021/08/30 08:42:49;;;;;;;;;;;;;;;;;;5040474;28;19988;-80
2021/08/30 08:45:52;;;;;;;;;;;;;;;;;;5034999;28;19936;-80
2021/08/30 08:48:36;;;;;;;;;;;;;;;;;;5034577;28;19920;-79
2021/08/30 08:51:20;;;;;;;;;;;;;;;;;;5035607;28;20186;-79
2021/08/30 08:54:07;;;;;;;;;;;;;;;;;;5033608;28;20320;-79
2021/08/30 08:56:52;;;;;;;;;;;;;;;;;;5036303;28;20373;-78
2021/08/30 08:59:36;;;;;;;;;;;;;;;;;;5036990;28;20298;-80
2021/08/30 09:02:20;;;;;;;;;;;;;;;;;;5035705;28;19920;-79
2021/08/30 09:05:05;;;;;;;;;;;;;;;;;;5034694;28;19928;-79
2021/08/30 09:07:50;;;;;;;;;;;;;;;;;;5032327;28;20436;-80
2021/08/30 09:10:39;;;;;;;;;;;;;;;;;;5034732;28;19928;-79
2021/08/30 09:13:24;;;;;;;;;;;;;;;;;;5030981;28;19931;-79
2021/08/30 09:16:09;;;;;;;;;;;;;;;;;;5032554;28;19928;-79
2021/08/30 09:18:54;;;;;;;;;;;;;;;;;;5034766;28;20308;-80
2021/08/30 09:21:38;;;;;;;;;;;;;;;;;;5030465;28;19920;-78
2021/08/30 09:24:23;;;;;;;;;;;;;;;;;;5028455;28;20293;-78
2021/08/30 09:27:07;;;;;;;;;;;;;;;;;;5031934;28;19928;-77
2021/08/30 09:29:51;;;;;;;;;;;;;;;;;;5031949;28;19924;-76
2021/08/30 09:32:35;;;;;;;;;;;;;;;;;;5029217;28;19936;-76
2021/08/30 09:35:20;;;;;;;;;;;;;;;;;;5034458;28;19970;-77
2021/08/30 09:38:04;;;;;;;;;;;;;;;;;;5033099;28;19928;-77
2021/08/30 09:40:48;;;;;;;;;;;;;;;;;;5032966;28;19947;-76
2021/08/30 09:43:32;;;;;;;;;;;;;;;;;;5029118;28;19921;-77
2021/08/30 09:46:16;;;;;;;;;;;;;;;;;;5036035;28;19921;-77
2021/08/30 09:49:01;;;;;;;;;;;;;;;;;;5033544;28;19920;-77
2021/08/30 09:51:45;;;;;;;;;;;;;;;;;;5031292;28;19920;-77
2021/08/30 09:54:30;;;;;;;;;;;;;;;;;;5032604;28;19925;-77
2021/08/30 09:57:14;;;;;;;;;;;;;;;;;;5033759;28;19928;-77
2021/08/30 09:59:58;;;;;;;;;;;;;;;;;;5031285;28;19924;-76
2021/08/30 10:02:42;;;;;;;;;;;;;;;;;;5029993;28;19940;-79
2021/08/30 10:05:27;;;;;;;;;;;;;;;;;;5034111;28;19928;-79
2021/08/30 10:08:15;;;;;;;;;;;;;;;;;;5033249;28;19920;-78
2021/08/30 10:10:59;;;;;;;;;;;;;;;;;;5034228;28;19924;-79
2021/08/30 10:13:45;;;;;;;;;;;;;;;;;;5033202;28;19993;-80
2021/08/30 10:16:28;;;;;;;;;;;;;;;;;;5032809;28;19920;-80
2021/08/30 10:19:13;;;;;;;;;;;;;;;;;;5036853;28;19920;-80
2021/08/30 10:21:57;;;;;;;;;;;;;;;;;;5033104;28;19921;-80
2021/08/30 10:24:41;;;;;;;;;;;;;;;;;;5032309;28;20293;-80
2021/08/30 10:27:25;;;;;;;;;;;;;;;;;;5034773;28;20396;-79
2021/08/30 10:30:09;;;;;;;;;;;;;;;;;;5034714;28;20305;-79
2021/08/30 10:32:54;;;;;;;;;;;;;;;;;;5031623;28;20605;-79
2021/08/30 10:35:38;;;;;;;;;;;;;;;;;;5035562;28;19920;-79
2021/08/30 10:38:22;;;;;;;;;;;;;;;;;;5031211;28;20404;-79
2021/08/30 10:41:06;;;;;;;;;;;;;;;;;;5032307;28;19920;-80
2021/08/30 10:43:51;;;;;;;;;;;;;;;;;;5038261;28;20580;-81
2021/08/30 10:46:35;;;;;;;;;;;;;;;;;;5031484;28;20392;-82
2021/08/30 10:49:22;;;;;;;;;;;;;;;;;;5030097;28;20025;-81
2021/08/30 10:52:06;;;;;;;;;;;;;;;;;;5033909;28;19920;-81
2021/08/30 10:54:50;;;;;;;;;;;;;;;;;;5040046;28;19928;-81
2021/08/30 10:57:34;;;;;;;;;;;;;;;;;;5036208;28;19924;-81
2021/08/30 11:00:18;;;;;;;;;;;;;;;;;;5026905;28;20089;-83
2021/08/30 11:03:03;;;;;;;;;;;;;;;;;;5037830;28;19920;-82
2021/08/30 11:05:48;;;;;;;;;;;;;;;;;;5037145;28;19920;-82
2021/08/30 11:08:32;;;;;;;;;;;;;;;;;;5035285;28;19920;-81
2021/08/30 11:11:16;;;;;;;;;;;;;;;;;;5037516;28;20301;-83
2021/08/30 11:14:00;;;;;;;;;;;;;;;;;;5039691;28;19920;-82
2021/08/30 11:16:45;;;;;;;;;;;;;;;;;;5032531;28;19932;-81
2021/08/30 11:19:29;;;;;;;;;;;;;;;;;;5036735;28;20563;-80
2021/08/30 11:22:13;;;;;;;;;;;;;;;;;;5040031;28;19920;-81
2021/08/30 11:24:57;;;;;;;;;;;;;;;;;;5031848;28;19920;-80
2021/08/30 11:27:41;;;;;;;;;;;;;;;;;;5029819;28;19925;-82
2021/08/30 11:30:26;;;;;;;;;;;;;;;;;;5034335;28;20034;-81
2021/08/30 11:33:10;;;;;;;;;;;;;;;;;;5032884;28;19924;-81
2021/08/30 11:35:54;;;;;;;;;;;;;;;;;;5036004;28;19928;-79
2021/08/30 11:38:38;;;;;;;;;;;;;;;;;;5031248;28;19920;-81
2021/08/30 11:41:23;;;;;;;;;;;;;;;;;;5032327;28;19928;-82
2021/08/30 11:44:07;;;;;;;;;;;;;;;;;;5032757;28;19919;-81
2021/08/30 11:46:51;;;;;;;;;;;;;;;;;;5036518;28;19924;-81
2021/08/30 11:49:35;;;;;;;;;;;;;;;;;;5034153;28;19924;-80
2021/08/30 11:52:20;;;;;;;;;;;;;;;;;;5033677;28;19936;-82
2021/08/30 11:55:04;;;;;;;;;;;;;;;;;;5040111;28;20404;-81
2021/08/30 11:57:49;;;;;;;;;;;;;;;;;;5037273;28;19928;-80
2021/08/30 12:00:33;;;;;;;;;;;;;;;;;;5036056;28;19928;-82
2021/08/30 12:03:18;;;;;;;;;;;;;;;;;;5042016;28;19988;-81
2021/08/30 12:06:02;;;;;;;;;;;;;;;;;;5042190;28;19921;-81
2021/08/30 12:08:46;;;;;;;;;;;;;;;;;;5037043;28;20332;-81
2021/08/30 12:11:35;;;;;;;;;;;;;;;;;;5041283;28;19928;-82
2021/08/30 12:14:24;;;;;;;;;;;;;;;;;;5041634;28;19936;-83
2021/08/30 12:17:09;;;;;;;;;;;;;;;;;;5035861;28;19928;-82
2021/08/30 12:19:57;;;;;;;;;;;;;;;;;;5041684;28;19920;-82
2021/08/30 12:22:41;;;;;;;;;;;;;;;;;;5037015;28;19920;-82
2021/08/30 12:25:25;;;;;;;;;;;;;;;;;;5034297;28;19928;-81
2021/08/30 12:28:09;;;;;;;;;;;;;;;;;;5033793;28;19920;-81
2021/08/30 12:30:53;;;;;;;;;;;;;;;;;;5036324;28;19924;-81
2021/08/30 12:33:38;;;;;;;;;;;;;;;;;;5034337;28;19924;-80
2021/08/30 12:36:22;;;;;;;;;;;;;;;;;;5033107;28;20309;-82
2021/08/30 12:39:06;;;;;;;;;;;;;;;;;;5040530;28;19924;-80
2021/08/30 12:41:50;;;;;;;;;;;;;;;;;;5034446;28;19920;-80
2021/08/30 12:44:34;;;;;;;;;;;;;;;;;;5032851;28;20400;-80
2021/08/30 12:47:19;;;;;;;;;;;;;;;;;;5035090;28;19921;-82
2021/08/30 12:50:03;;;;;;;;;;;;;;;;;;5035719;28;19924;-79
2021/08/30 12:52:47;;;;;;;;;;;;;;;;;;5031624;28;19924;-80
2021/08/30 12:55:32;;;;;;;;;;;;;;;;;;5030898;28;20404;-82
2021/08/30 12:58:16;;;;;;;;;;;;;;;;;;5032690;28;19920;-81
2021/08/30 13:01:01;;;;;;;;;;;;;;;;;;5034222;28;19920;-82
2021/08/30 13:03:45;;;;;;;;;;;;;;;;;;5037890;28;19924;-82
2021/08/30 13:06:29;;;;;;;;;;;;;;;;;;5038962;28;19929;-82
2021/08/30 13:09:13;;;;;;;;;;;;;;;;;;5034642;28;19920;-81
2021/08/30 13:11:57;;;;;;;;;;;;;;;;;;5028347;28;19924;-82
2021/08/30 13:14:41;;;;;;;;;;;;;;;;;;5034931;28;20404;-83
2021/08/30 13:17:26;;;;;;;;;;;;;;;;;;5029885;28;19920;-81
2021/08/30 13:20:10;;;;;;;;;;;;;;;;;;5038612;28;20400;-80
2021/08/30 13:22:54;;;;;;;;;;;;;;;;;;5034884;28;19924;-80
2021/08/30 13:25:38;;;;;;;;;;;;;;;;;;5040269;28;19920;-81
2021/08/30 13:28:22;;;;;;;;;;;;;;;;;;5033709;28;19929;-80
2021/08/30 13:31:08;;;;;;;;;;;;;;;;;;5036392;28;19928;-80
2021/08/30 13:33:52;;;;;;;;;;;;;;;;;;5034608;28;19920;-81
2021/08/30 13:36:36;;;;;;;;;;;;;;;;;;5033087;28;19928;-80
2021/08/30 13:39:21;;;;;;;;;;;;;;;;;;5037494;28;19920;-82
2021/08/30 13:42:05;;;;;;;;;;;;;;;;;;5034150;28;20388;-81
2021/08/30 13:44:49;;;;;;;;;;;;;;;;;;5035969;28;19924;-81
2021/08/30 13:47:33;;;;;;;;;;;;;;;;;;5035924;28;19932;-81
2021/08/30 13:50:18;;;;;;;;;;;;;;;;;;5031203;28;19924;-80
2021/08/30 13:53:02;;;;;;;;;;;;;;;;;;5033923;28;19920;-84
2021/08/30 13:55:46;;;;;;;;;;;;;;;;;;5038872;28;19921;-84
2021/08/30 13:58:30;;;;;;;;;;;;;;;;;;5037487;28;19920;-83
2021/08/30 14:01:14;;;;;;;;;;;;;;;;;;5040739;28;19924;-84
2021/08/30 14:03:59;;;;;;;;;;;;;;;;;;5038047;28;19924;-84
2021/08/30 14:06:43;;;;;;;;;;;;;;;;;;5041147;28;19920;-82
2021/08/30 14:09:28;;;;;;;;;;;;;;;;;;5036765;28;20408;-83
2021/08/30 14:12:12;;;;;;;;;;;;;;;;;;5035058;28;19920;-84
2021/08/30 14:14:56;;;;;;;;;;;;;;;;;;5038001;28;19920;-84
2021/08/30 14:17:41;;;;;;;;;;;;;;;;;;5040142;28;19921;-83
2021/08/30 14:20:25;;;;;;;;;;;;;;;;;;5037184;28;19932;-83
2021/08/30 14:23:11;;;;;;;;;;;;;;;;;;5039492;28;19948;-85
2021/08/30 14:25:55;;;;;;;;;;;;;;;;;;5034965;28;19924;-86
2021/08/30 14:28:39;;;;;;;;;;;;;;;;;;5036118;28;19936;-84
2021/08/30 14:31:25;;;;;;;;;;;;;;;;;;5041576;28;19932;-82
2021/08/30 14:34:09;;;;;;;;;;;;;;;;;;5037433;28;19923;-85
2021/08/30 14:36:54;;;;;;;;;;;;;;;;;;5035595;28;19920;-84
2021/08/30 14:39:39;;;;;;;;;;;;;;;;;;5037572;28;19920;-84
2021/08/30 14:42:23;;;;;;;;;;;;;;;;;;5035177;28;19920;-82
2021/08/30 14:45:07;;;;;;;;;;;;;;;;;;5034492;28;19920;-83
2021/08/30 14:47:51;;;;;;;;;;;;;;;;;;5036267;28;19947;-84
2021/08/30 14:50:36;;;;;;;;;;;;;;;;;;5034778;28;19928;-82
2021/08/30 14:53:20;;;;;;;;;;;;;;;;;;5033083;28;19924;-82
2021/08/30 14:56:04;;;;;;;;;;;;;;;;;;5031660;28;20289;-82
2021/08/30 14:58:49;;;;;;;;;;;;;;;;;;5036350;28;19932;-82
2021/08/30 15:01:34;;;;;;;;;;;;;;;;;;5034817;28;19920;-82
2021/08/30 15:04:18;;;;;;;;;;;;;;;;;;5030697;28;20404;-84
2021/08/30 15:07:03;;;;;;;;;;;;;;;;;;5035789;28;19920;-82
2021/08/30 15:09:47;;;;;;;;;;;;;;;;;;5035136;28;19924;-82
2021/08/30 15:12:38;;;;;;;;;;;;;;;;;;5033136;28;19920;-82
2021/08/30 15:15:23;;;;;;;;;;;;;;;;;;5035880;28;19920;-82
2021/08/30 15:18:07;;;;;;;;;;;;;;;;;;5034254;28;19936;-82
2021/08/30 15:20:51;;;;;;;;;;;;;;;;;;5031660;28;20297;-84
2021/08/30 15:23:35;;;;;;;;;;;;;;;;;;5038325;28;19928;-85
2021/08/30 15:26:19;;;;;;;;;;;;;;;;;;5033936;28;20565;-83
2021/08/30 15:29:04;;;;;;;;;;;;;;;;;;5034898;28;19920;-85
2021/08/30 15:31:48;;;;;;;;;;;;;;;;;;5036463;28;20288;-85
2021/08/30 15:34:32;;;;;;;;;;;;;;;;;;5041038;28;20425;-85
2021/08/30 15:37:17;;;;;;;;;;;;;;;;;;5039891;28;19920;-83
2021/08/30 15:40:01;;;;;;;;;;;;;;;;;;5032453;28;19960;-84
2021/08/30 15:42:45;;;;;;;;;;;;;;;;;;5040425;28;20396;-85
2021/08/30 15:45:29;;;;;;;;;;;;;;;;;;5042443;28;19936;-86
2021/08/30 15:48:14;;;;;;;;;;;;;;;;;;5038101;28;19920;-87
2021/08/30 15:50:58;;;;;;;;;;;;;;;;;;5040592;28;19940;-85
2021/08/30 15:53:42;;;;;;;;;;;;;;;;;;5037975;28;20312;-86
2021/08/30 15:56:26;;;;;;;;;;;;;;;;;;5041571;28;20515;-83
2021/08/30 15:59:10;;;;;;;;;;;;;;;;;;5035586;28;19924;-83
2021/08/30 16:01:54;;;;;;;;;;;;;;;;;;5039124;28;19920;-84
2021/08/30 16:04:39;;;;;;;;;;;;;;;;;;5038385;28;20309;-80
2021/08/30 16:07:23;;;;;;;;;;;;;;;;;;5036281;28;19920;-80
2021/08/30 16:10:07;;;;;;;;;;;;;;;;;;5032944;28;19924;-81
2021/08/30 16:12:53;;;;;;;;;;;;;;;;;;5040404;28;19920;-82
2021/08/30 16:15:38;;;;;;;;;;;;;;;;;;5034582;28;19920;-81
2021/08/30 16:18:22;;;;;;;;;;;;;;;;;;5032523;28;20293;-81
2021/08/30 16:21:06;;;;;;;;;;;;;;;;;;5037285;28;19936;-82
2021/08/30 16:23:52;;;;;;;;;;;;;;;;;;5030077;28;19928;-82
2021/08/30 16:26:36;;;;;;;;;;;;;;;;;;5038755;28;19921;-82
2021/08/30 16:29:23;;;;;;;;;;;;;;;;;;5034303;28;19929;-80
2021/08/30 16:32:07;;;;;;;;;;;;;;;;;;5031337;28;20440;-80
2021/08/30 16:35:11;;;;;;;;;;;;;;;;;;5039142;28;20440;-80
2021/08/30 16:37:56;;;;;;;;;;;;;;;;;;5030374;28;19924;-80
2021/08/30 16:40:40;;;;;;;;;;;;;;;;;;5026323;28;19920;-80
2021/08/30 16:43:24;;;;;;;;;;;;;;;;;;5033149;28;19964;-80
2021/08/30 16:46:08;;;;;;;;;;;;;;;;;;5036902;28;19921;-81
2021/08/30 16:48:53;;;;;;;;;;;;;;;;;;5030072;28;19936;-81
2021/08/30 16:51:37;;;;;;;;;;;;;;;;;;5028978;28;19932;-81
2021/08/30 16:54:21;;;;;;;;;;;;;;;;;;5032341;28;19936;-81
2021/08/30 16:57:05;;;;;;;;;;;;;;;;;;5034331;28;19924;-83
2021/08/30 16:59:49;;;;;;;;;;;;;;;;;;5032283;28;19920;-81
2021/08/30 17:02:34;;;;;;;;;;;;;;;;;;5037011;28;19921;-78
2021/08/30 17:05:18;;;;;;;;;;;;;;;;;;5034542;28;19920;-80
2021/08/30 17:08:02;;;;;;;;;;;;;;;;;;5038371;28;19924;-79
2021/08/30 17:10:47;;;;;;;;;;;;;;;;;;5043902;28;19940;-81
2021/08/30 17:13:31;;;;;;;;;;;;;;;;;;5036290;28;20282;-82
2021/08/30 17:16:15;;;;;;;;;;;;;;;;;;5040978;28;19920;-82
2021/08/30 17:18:59;;;;;;;;;;;;;;;;;;5041244;28;20289;-78
2021/08/30 17:21:44;;;;;;;;;;;;;;;;;;5036463;28;19924;-80
2021/08/30 17:24:28;;;;;;;;;;;;;;;;;;5031859;28;20039;-78
2021/08/30 17:27:12;;;;;;;;;;;;;;;;;;5032536;28;19920;-78
2021/08/30 17:29:59;;;;;;;;;;;;;;;;;;5029847;28;19920;-78
2021/08/30 17:32:44;;;;;;;;;;;;;;;;;;5039503;28;19920;-78
2021/08/30 17:35:28;;;;;;;;;;;;;;;;;;5033298;28;19924;-77
2021/08/30 17:38:12;;;;;;;;;;;;;;;;;;5031873;28;19924;-77
2021/08/30 17:40:56;;;;;;;;;;;;;;;;;;5033377;28;19945;-76
2021/08/30 17:43:40;;;;;;;;;;;;;;;;;;5026099;28;19924;-77
2021/08/30 17:46:24;;;;;;;;;;;;;;;;;;5030795;28;19920;-77
2021/08/30 17:49:09;;;;;;;;;;;;;;;;;;5032701;28;20298;-77
2021/08/30 17:51:53;;;;;;;;;;;;;;;;;;5033160;28;19939;-77
2021/08/30 17:54:37;;;;;;;;;;;;;;;;;;5029562;28;19924;-77
2021/08/30 17:57:27;;;;;;;;;;;;;;;;;;5034776;28;19936;-79
2021/08/30 18:00:11;;;;;;;;;;;;;;;;;;5030177;28;19920;-77
2021/08/30 18:02:56;;;;;;;;;;;;;;;;;;5038306;28;19920;-77
2021/08/30 18:05:41;;;;;;;;;;;;;;;;;;5036045;28;19920;-78
2021/08/30 18:08:26;;;;;;;;;;;;;;;;;;5030500;28;20404;-77
2021/08/30 18:11:10;;;;;;;;;;;;;;;;;;5026872;28;19990;-76
2021/08/30 18:13:54;;;;;;;;;;;;;;;;;;5030317;28;19924;-76
2021/08/30 18:16:38;;;;;;;;;;;;;;;;;;5032071;28;19928;-76
2021/08/30 18:19:22;;;;;;;;;;;;;;;;;;5035516;28;19920;-76
2021/08/30 18:22:06;;;;;;;;;;;;;;;;;;5032970;28;19920;-76
2021/08/30 18:24:50;;;;;;;;;;;;;;;;;;5032982;28;19928;-77
2021/08/30 18:27:35;;;;;;;;;;;;;;;;;;5034283;28;20476;-78
2021/08/30 18:30:19;;;;;;;;;;;;;;;;;;5031317;28;19948;-77
2021/08/30 18:33:03;;;;;;;;;;;;;;;;;;5029101;28;19920;-76
2021/08/30 18:35:47;;;;;;;;;;;;;;;;;;5030858;28;19921;-77
2021/08/30 18:38:31;;;;;;;;;;;;;;;;;;5032608;28;20293;-78
2021/08/30 18:41:15;;;;;;;;;;;;;;;;;;5033245;28;19924;-76
2021/08/30 18:43:59;;;;;;;;;;;;;;;;;;5030864;28;19935;-77
2021/08/30 18:46:44;;;;;;;;;;;;;;;;;;5034323;28;19920;-75
2021/08/30 18:49:28;;;;;;;;;;;;;;;;;;5029757;28;20412;-76
2021/08/30 18:52:12;;;;;;;;;;;;;;;;;;5030239;28;19925;-77
2021/08/30 18:54:56;;;;;;;;;;;;;;;;;;5032774;28;19924;-77
2021/08/30 18:57:40;;;;;;;;;;;;;;;;;;5025864;28;19920;-77
2021/08/30 19:00:25;;;;;;;;;;;;;;;;;;5028600;28;19921;-76
2021/08/30 19:03:09;;;;;;;;;;;;;;;;;;5031639;28;19921;-77
2021/08/30 19:05:53;;;;;;;;;;;;;;;;;;5029888;28;19928;-77
2021/08/30 19:08:37;;;;;;;;;;;;;;;;;;5025897;28;19924;-77
2021/08/30 19:11:21;;;;;;;;;;;;;;;;;;5035075;28;19924;-77
2021/08/30 19:14:07;;;;;;;;;;;;;;;;;;5032259;28;19924;-76
2021/08/30 19:16:51;;;;;;;;;;;;;;;;;;5033954;28;19928;-77
2021/08/30 19:19:35;;;;;;;;;;;;;;;;;;5034635;28;19928;-77
2021/08/30 19:22:19;;;;;;;;;;;;;;;;;;5030935;28;19920;-76
2021/08/30 19:25:04;;;;;;;;;;;;;;;;;;5026898;28;19936;-77